Time;durP1;ratioP1;P1;durP2;ratioP2;P2;SDS_P1;SDS_P2;PMS_P1;PMS_P2;Temp;Humidity;BMP_temperature;BMP_pressure;BME280_temperature;BME280_humidity;BME280_pressure;Samples;Min_cycle;Max_cycle;Signal;HPM_P1;HPM_P2
2022/01/15 00:01:35;;;;;;;;;91.20;84.20;22.10;99.90;;;;;;5057673;28;8777;-71
2022/01/15 00:04:01;;;;;;;;;94.20;83.00;22.00;99.90;;;;;;5046947;28;8792;-69
2022/01/15 00:06:28;;;;;;;;;78.20;64.40;22.00;99.90;;;;;;5040588;28;8797;-72
2022/01/15 00:08:55;;;;;;;;;85.80;80.00;21.90;99.90;;;;;;5056639;28;9399;-71
2022/01/15 00:11:22;;;;;;;;;90.40;84.20;21.70;99.90;;;;;;5057575;28;8868;-71
2022/01/15 00:13:56;;;;;;;;;84.80;79.20;21.70;99.90;;;;;;5058049;28;8773;-71
2022/01/15 00:16:44;;;;;;;;;98.80;89.60;21.80;99.90;;;;;;5058011;28;8880;-72
2022/01/15 00:19:13;;;;;;;;;91.40;83.00;21.90;99.90;;;;;;5058494;28;8774;-72
2022/01/15 00:21:40;;;;;;;;;98.40;91.20;22.00;99.90;;;;;;5057996;28;8785;-72
2022/01/15 00:24:07;;;;;;;;;91.80;80.80;22.00;99.90;;;;;;5057249;28;8766;-71
2022/01/15 00:26:34;;;;;;;;;98.00;85.00;22.00;99.90;;;;;;5057898;28;8849;-71
2022/01/15 00:29:01;;;;;;;;;90.20;81.20;21.80;99.90;;;;;;5057070;28;8758;-71
2022/01/15 00:31:27;;;;;;;;;97.20;88.80;21.70;99.90;;;;;;5057775;28;8846;-70
2022/01/15 00:33:54;;;;;;;;;108.60;93.60;21.70;99.90;;;;;;5056824;28;8769;-71
2022/01/15 00:36:21;;;;;;;;;97.20;86.20;21.70;99.90;;;;;;5057651;28;8876;-69
2022/01/15 00:38:48;;;;;;;;;91.80;82.40;21.70;99.90;;;;;;5057437;28;8750;-72
2022/01/15 00:41:17;;;;;;;;;94.20;85.00;21.80;99.90;;;;;;5057308;28;8766;-72
2022/01/15 00:43:44;;;;;;;;;91.20;85.40;21.60;99.90;;;;;;5056951;28;8710;-72
2022/01/15 00:46:13;;;;;;;;;97.00;88.00;21.70;99.90;;;;;;5057689;28;8761;-71
2022/01/15 00:48:40;;;;;;;;;86.40;82.20;21.80;99.90;;;;;;5055676;28;8833;-71
2022/01/15 00:51:07;;;;;;;;;91.80;85.20;21.80;99.90;;;;;;5057276;28;8765;-72
2022/01/15 00:53:33;;;;;;;;;90.20;79.40;21.80;99.90;;;;;;5056928;28;8850;-72
2022/01/15 00:56:03;;;;;;;;;94.40;87.60;21.90;99.90;;;;;;5056981;28;9486;-72
2022/01/15 00:58:29;;;;;;;;;93.80;81.00;22.00;99.90;;;;;;5056633;28;8815;-72
2022/01/15 01:00:56;;;;;;;;;107.20;95.00;22.10;99.90;;;;;;5057456;28;8762;-72
2022/01/15 01:03:23;;;;;;;;;120.20;104.60;22.10;99.90;;;;;;5056651;28;8758;-72
2022/01/15 01:05:49;;;;;;;;;113.60;100.40;22.20;99.90;;;;;;5056951;28;8777;-72
2022/01/15 01:08:16;;;;;;;;;106.40;96.80;22.20;99.90;;;;;;5056671;28;8766;-72
2022/01/15 01:10:50;;;;;;;;;102.60;88.80;22.30;99.90;;;;;;5056691;28;9014;-71
2022/01/15 01:24:25;;;;;;;;;105.00;96.40;22.70;99.90;;;;;;5055328;28;8800;-70
2022/01/15 01:27:02;;;;;;;;;101.60;88.00;22.80;99.90;;;;;;5056666;28;8769;-72
2022/01/15 01:32:33;;;;;;;;;86.40;80.20;22.80;99.90;;;;;;5056562;28;8769;-72
2022/01/15 01:35:07;;;;;;;;;86.80;78.20;22.90;99.90;;;;;;5056917;28;8773;-70
2022/01/15 01:37:39;;;;;;;;;80.40;68.60;23.00;99.90;;;;;;5056446;28;8794;-71
2022/01/15 01:40:20;;;;;;;;;85.80;78.20;23.00;99.90;;;;;;5040418;28;8749;-71
2022/01/15 01:45:48;;;;;;;;;91.00;84.20;23.20;99.90;;;;;;5025540;28;8866;-69
2022/01/15 01:48:15;;;;;;;;;93.00;85.40;23.20;99.90;;;;;;5056756;28;9454;-69
2022/01/15 01:50:42;;;;;;;;;87.00;76.00;23.30;99.90;;;;;;5056837;28;8784;-70
2022/01/15 01:53:09;;;;;;;;;90.40;82.80;23.50;99.90;;;;;;5056900;28;8758;-70
2022/01/15 01:55:35;;;;;;;;;82.00;72.20;23.50;99.90;;;;;;5058804;28;8757;-71
2022/01/15 01:58:02;;;;;;;;;89.20;79.40;23.50;99.90;;;;;;5076629;28;8856;-71
2022/01/15 02:00:29;;;;;;;;;94.00;87.40;23.40;99.90;;;;;;5075401;28;8785;-71
2022/01/15 02:02:56;;;;;;;;;84.20;74.20;23.50;99.90;;;;;;5075804;28;9537;-71
2022/01/15 02:05:23;;;;;;;;;85.60;76.80;23.60;99.90;;;;;;5059816;28;8792;-70
2022/01/15 02:07:50;;;;;;;;;80.80;70.40;23.70;99.90;;;;;;5060034;28;8785;-70
2022/01/15 02:10:18;;;;;;;;;82.20;71.20;23.70;99.90;;;;;;5060967;28;8753;-69
2022/01/15 02:12:47;;;;;;;;;85.40;73.80;23.70;99.90;;;;;;5042591;28;8856;-70
2022/01/15 02:15:16;;;;;;;;;86.00;71.40;23.90;99.90;;;;;;5060671;28;8888;-72
2022/01/15 02:17:44;;;;;;;;;79.80;66.20;23.80;99.90;;;;;;5060237;28;8772;-71
2022/01/15 02:25:47;;;;;;;;;84.80;78.40;23.80;99.90;;;;;;5059749;28;8750;-72
2022/01/15 02:28:17;;;;;;;;;82.20;67.40;23.80;99.90;;;;;;5060276;28;8766;-71
2022/01/15 02:30:43;;;;;;;;;91.60;82.00;23.80;99.90;;;;;;5059791;28;8768;-71
2022/01/15 02:33:10;;;;;;;;;81.60;71.80;23.90;99.90;;;;;;5058476;28;8791;-73
2022/01/15 02:35:37;;;;;;;;;91.80;81.40;24.00;99.90;;;;;;5059330;28;8788;-72
2022/01/15 02:38:08;;;;;;;;;92.40;81.20;24.00;99.90;;;;;;5059558;28;8773;-72
2022/01/15 02:40:35;;;;;;;;;93.80;80.80;24.10;99.90;;;;;;5059392;28;8782;-72
2022/01/15 02:43:15;;;;;;;;;82.20;71.80;24.10;99.90;;;;;;5058668;28;8810;-72
2022/01/15 02:45:45;;;;;;;;;84.40;81.00;24.10;99.90;;;;;;5059020;28;8868;-72
2022/01/15 02:48:13;;;;;;;;;85.60;75.60;24.10;99.90;;;;;;5058034;28;8823;-69
2022/01/15 02:50:40;;;;;;;;;86.80;80.60;24.30;99.90;;;;;;5058840;28;8796;-70
2022/01/15 02:53:07;;;;;;;;;81.20;70.00;24.50;99.90;;;;;;5059449;28;8781;-70
2022/01/15 02:55:34;;;;;;;;;91.40;81.80;24.70;99.90;;;;;;5059128;28;8749;-70
2022/01/15 02:58:01;;;;;;;;;87.40;75.20;24.80;99.90;;;;;;5074985;28;8931;-70
2022/01/15 03:00:28;;;;;;;;;82.80;72.60;24.90;99.90;;;;;;5058795;28;8769;-70
2022/01/15 03:02:54;;;;;;;;;79.40;69.60;25.00;99.90;;;;;;5058220;28;8801;-71
2022/01/15 03:05:21;;;;;;;;;77.60;63.60;25.10;99.90;;;;;;5057229;28;8765;-70
2022/01/15 03:07:48;;;;;;;;;81.80;69.60;25.20;99.90;;;;;;5058620;28;8842;-70
2022/01/15 03:10:15;;;;;;;;;75.80;63.40;25.20;99.90;;;;;;5059478;28;9498;-70
2022/01/15 03:12:42;;;;;;;;;72.80;63.40;25.40;99.90;;;;;;5058861;28;8750;-70
2022/01/15 03:15:09;;;;;;;;;79.00;65.00;25.30;99.90;;;;;;5058853;28;8750;-72
2022/01/15 03:17:36;;;;;;;;;75.00;64.40;24.80;99.90;;;;;;5058637;28;8770;-71
2022/01/15 03:20:06;;;;;;;;;76.40;67.60;24.80;99.90;;;;;;5049589;28;8800;-71
2022/01/15 03:22:33;;;;;;;;;77.80;68.20;25.00;99.90;;;;;;5040633;28;8789;-69
2022/01/15 03:25:00;;;;;;;;;79.40;68.40;25.20;99.90;;;;;;5059113;28;8744;-70
2022/01/15 03:27:26;;;;;;;;;76.60;64.40;25.30;99.90;;;;;;5058678;28;8843;-71
2022/01/15 03:29:53;;;;;;;;;79.20;69.20;25.60;99.90;;;;;;5058662;28;8762;-71
2022/01/15 03:32:20;;;;;;;;;78.40;65.20;25.60;99.90;;;;;;5058351;28;8780;-69
2022/01/15 03:34:47;;;;;;;;;72.20;56.80;25.70;99.90;;;;;;5073858;28;8776;-70
2022/01/15 03:37:14;;;;;;;;;74.60;59.20;25.90;99.90;;;;;;5059401;28;8778;-70
2022/01/15 03:39:41;;;;;;;;;75.00;62.80;25.90;99.90;;;;;;5058335;28;8772;-70
2022/01/15 03:42:13;;;;;;;;;77.40;66.40;26.00;99.90;;;;;;5058486;28;8749;-70
2022/01/15 03:44:46;;;;;;;;;74.60;57.20;26.10;99.90;;;;;;5058237;28;8840;-70
2022/01/15 03:47:13;;;;;;;;;74.80;63.40;26.00;99.90;;;;;;5057099;28;8855;-70
2022/01/15 03:49:40;;;;;;;;;76.40;66.40;26.10;99.90;;;;;;5057901;28;8780;-70
2022/01/15 03:52:07;;;;;;;;;74.40;60.60;26.30;99.90;;;;;;5058597;28;8828;-70
2022/01/15 03:54:37;;;;;;;;;78.00;62.80;26.40;99.90;;;;;;5057376;28;8757;-71
2022/01/15 03:57:04;;;;;;;;;69.20;53.40;26.40;99.90;;;;;;5057048;28;8772;-71
2022/01/15 03:59:31;;;;;;;;;69.00;54.20;26.60;99.90;;;;;;5057055;28;8847;-71
2022/01/15 04:01:58;;;;;;;;;73.40;58.20;26.80;99.90;;;;;;5058078;28;8774;-71
2022/01/15 04:04:24;;;;;;;;;72.00;54.80;26.70;99.90;;;;;;5058242;28;8837;-70
2022/01/15 04:06:51;;;;;;;;;72.60;60.20;26.50;99.90;;;;;;5058342;28;8800;-70
2022/01/15 04:09:18;;;;;;;;;72.40;54.20;26.50;99.90;;;;;;5057873;28;8779;-69
2022/01/15 04:11:45;;;;;;;;;74.00;62.25;26.70;99.90;;;;;;5057943;28;8770;-70
2022/01/15 04:14:12;;;;;;;;;72.25;56.50;26.80;99.90;;;;;;5058215;28;8752;-70
2022/01/15 04:16:39;;;;;;;;;71.60;57.00;26.80;99.90;;;;;;5056328;28;8758;-70
2022/01/15 04:19:08;;;;;;;;;69.75;54.25;26.90;99.90;;;;;;5058594;28;8747;-70
2022/01/15 04:21:36;;;;;;;;;74.75;57.50;27.00;99.90;;;;;;5057516;28;8744;-70
2022/01/15 04:24:03;;;;;;;;;70.20;56.20;27.00;99.90;;;;;;5056441;28;8710;-70
2022/01/15 04:26:30;;;;;;;;;74.20;60.00;26.80;99.90;;;;;;5057429;28;8741;-71
2022/01/15 04:29:04;;;;;;;;;72.00;56.80;26.60;99.90;;;;;;5058013;28;8771;-69
2022/01/15 04:31:48;;;;;;;;;76.20;61.20;26.60;99.90;;;;;;5072820;28;8773;-70
2022/01/15 04:34:20;;;;;;;;;70.80;57.20;26.90;99.90;;;;;;5057081;28;8774;-71
2022/01/15 04:36:47;;;;;;;;;72.00;58.20;27.00;99.90;;;;;;5056115;28;8793;-70
2022/01/15 04:39:14;;;;;;;;;68.50;54.00;27.00;99.90;;;;;;5057136;28;9378;-71
2022/01/15 04:41:41;;;;;;;;;66.50;51.75;27.00;99.90;;;;;;5055979;28;8789;-71
2022/01/15 04:44:08;;;;;;;;;66.20;52.60;27.20;99.90;;;;;;5057487;28;8803;-71
2022/01/15 04:46:35;;;;;;;;;69.20;54.40;27.20;99.90;;;;;;5056813;28;8758;-70
2022/01/15 04:49:02;;;;;;;;;71.25;54.00;27.40;99.90;;;;;;5056835;28;8863;-71
2022/01/15 04:51:28;;;;;;;;;72.60;57.20;27.60;99.90;;;;;;5057019;28;8716;-70
2022/01/15 04:53:55;;;;;;;;;56.75;46.25;27.70;99.90;;;;;;5057130;28;8714;-70
2022/01/15 04:56:22;;;;;;;;;67.00;52.00;27.70;99.90;;;;;;5055886;28;8884;-70
2022/01/15 04:58:49;;;;;;;;;63.75;48.75;27.80;99.90;;;;;;5056100;28;8745;-70
2022/01/15 05:01:16;;;;;;;;;67.00;52.00;27.90;99.90;;;;;;5057851;28;8875;-70
2022/01/15 05:03:42;;;;;;;;;65.75;51.75;28.00;99.90;;;;;;5072448;28;9484;-70
2022/01/15 05:06:09;;;;;;;;;71.20;54.60;28.00;99.90;;;;;;5046307;28;8782;-69
2022/01/15 05:08:36;;;;;;;;;63.50;50.00;28.00;99.90;;;;;;5056495;28;8762;-69
2022/01/15 05:11:12;;;;;;;;;59.00;47.25;28.10;99.90;;;;;;5055842;28;8810;-70
2022/01/15 05:13:39;;;;;;;;;60.00;48.50;28.20;99.20;;;;;;5055308;28;8862;-69
2022/01/15 05:16:07;;;;;;;;;63.00;49.00;28.40;98.80;;;;;;5057381;28;8848;-70
2022/01/15 05:18:33;;;;;;;;;56.50;46.00;28.40;98.90;;;;;;5054554;28;8789;-71
2022/01/15 05:21:00;;;;;;;;;58.75;47.00;28.50;98.20;;;;;;5056666;28;8801;-71
2022/01/15 05:23:27;;;;;;;;;52.00;43.75;28.50;97.40;;;;;;5055085;28;9190;-70
2022/01/15 05:25:54;;;;;;;;;54.50;45.25;28.40;96.90;;;;;;5055191;28;8876;-70
2022/01/15 05:28:21;;;;;;;;;58.25;47.00;28.50;96.40;;;;;;5056051;28;8758;-69
2022/01/15 05:30:47;;;;;;;;;58.00;47.00;28.40;96.20;;;;;;5056311;28;8835;-70
2022/01/15 05:33:16;;;;;;;;;53.50;43.00;28.40;96.80;;;;;;5056547;28;8780;-70
2022/01/15 05:35:43;;;;;;;;;49.25;39.00;28.60;96.00;;;;;;5056332;28;8772;-70
2022/01/15 05:38:09;;;;;;;;;55.50;45.25;28.60;96.30;;;;;;5056291;28;8774;-70
2022/01/15 05:40:36;;;;;;;;;47.75;39.50;28.70;96.90;;;;;;5056064;28;8754;-70
2022/01/15 05:43:03;;;;;;;;;52.50;42.75;28.90;94.80;;;;;;5056897;28;8849;-70
2022/01/15 05:45:30;;;;;;;;;52.25;40.75;29.00;94.50;;;;;;5055057;28;8734;-70
2022/01/15 05:47:56;;;;;;;;;49.75;41.00;29.10;94.20;;;;;;5056519;28;8758;-70
2022/01/15 05:50:23;;;;;;;;;51.75;41.50;29.10;94.10;;;;;;5056223;28;8784;-70
2022/01/15 05:52:50;;;;;;;;;55.75;46.00;29.00;93.40;;;;;;5038489;28;8757;-69
2022/01/15 05:55:16;;;;;;;;;51.25;43.75;29.00;93.70;;;;;;5055635;28;8769;-67
2022/01/15 05:57:43;;;;;;;;;50.75;42.00;28.90;94.40;;;;;;5071486;28;8742;-69
2022/01/15 06:00:10;;;;;;;;;50.00;41.75;29.00;94.20;;;;;;5056347;28;8714;-69
2022/01/15 06:02:37;;;;;;;;;49.75;40.75;29.10;93.40;;;;;;5055914;28;8794;-71
2022/01/15 06:05:04;;;;;;;;;51.75;39.75;29.10;93.90;;;;;;5055940;28;8746;-69
2022/01/15 06:07:31;;;;;;;;;52.50;42.25;29.20;93.80;;;;;;5054578;28;8766;-69
2022/01/15 06:09:57;;;;;;;;;48.25;39.00;29.10;93.10;;;;;;5055470;28;8832;-70
2022/01/15 06:12:30;;;;;;;;;49.00;39.00;29.20;92.60;;;;;;5055721;28;8752;-69
2022/01/15 06:14:56;;;;;;;;;48.25;39.75;29.30;93.10;;;;;;5055979;28;9414;-70
2022/01/15 06:17:23;;;;;;;;;51.25;41.00;29.60;92.30;;;;;;5056106;28;8777;-69
2022/01/15 06:19:50;;;;;;;;;52.25;41.50;29.80;91.60;;;;;;5034702;28;8819;-70
2022/01/15 06:22:17;;;;;;;;;57.00;42.50;29.70;92.10;;;;;;5035128;28;8741;-68
2022/01/15 06:24:44;;;;;;;;;50.75;40.25;29.40;92.80;;;;;;5036058;28;8819;-69
2022/01/15 06:27:11;;;;;;;;;51.00;42.00;29.30;93.20;;;;;;5036153;28;8846;-70
2022/01/15 06:29:39;;;;;;;;;49.00;40.50;29.50;92.60;;;;;;5034487;28;8883;-69
2022/01/15 06:32:06;;;;;;;;;50.00;41.50;29.50;92.90;;;;;;5034568;28;9413;-69
2022/01/15 06:34:33;;;;;;;;;53.00;40.75;29.60;92.80;;;;;;5043079;28;9441;-70
2022/01/15 06:36:59;;;;;;;;;51.25;40.75;29.80;92.90;;;;;;5056514;28;8738;-70
2022/01/15 06:39:26;;;;;;;;;51.25;40.75;30.00;92.00;;;;;;5055958;28;8718;-71
2022/01/15 06:41:53;;;;;;;;;50.25;40.75;30.10;91.20;;;;;;5059266;28;8742;-71
2022/01/15 06:44:20;;;;;;;;;55.25;45.25;29.80;92.10;;;;;;5058072;28;8714;-68
2022/01/15 06:46:46;;;;;;;;;52.00;43.00;29.80;91.80;;;;;;5075056;28;9025;-70
2022/01/15 06:49:13;;;;;;;;;54.75;44.00;30.10;91.40;;;;;;5059892;28;8753;-69
2022/01/15 06:51:40;;;;;;;;;51.75;42.00;30.00;91.90;;;;;;5057817;28;8871;-70
2022/01/15 06:54:06;;;;;;;;;52.50;41.50;30.20;91.20;;;;;;5057870;28;8869;-69
2022/01/15 06:56:33;;;;;;;;;47.50;39.50;30.20;91.10;;;;;;5057532;28;9446;-71
2022/01/15 06:59:00;;;;;;;;;52.75;43.00;30.10;91.40;;;;;;5059361;28;8817;-69
2022/01/15 07:01:26;;;;;;;;;52.50;42.50;30.00;91.40;;;;;;5058549;28;8854;-69
2022/01/15 07:03:53;;;;;;;;;49.25;39.75;30.10;90.40;;;;;;5059855;28;8781;-69
2022/01/15 07:06:20;;;;;;;;;50.75;41.25;30.10;91.30;;;;;;5058879;28;8765;-68
2022/01/15 07:08:47;;;;;;;;;51.75;42.00;30.20;91.50;;;;;;5038874;28;8776;-70
2022/01/15 07:11:13;;;;;;;;;53.00;44.25;30.20;91.50;;;;;;5038693;28;8771;-70
2022/01/15 07:13:40;;;;;;;;;51.75;41.50;30.20;91.40;;;;;;5037690;28;8740;-69
2022/01/15 07:16:07;;;;;;;;;52.75;44.25;30.30;90.50;;;;;;5038278;28;9441;-70
2022/01/15 07:18:34;;;;;;;;;53.75;43.75;30.20;91.10;;;;;;5037256;28;8745;-70
2022/01/15 07:21:00;;;;;;;;;55.50;44.75;30.20;91.10;;;;;;5037024;28;8785;-69
2022/01/15 07:23:27;;;;;;;;;51.75;40.50;30.40;90.80;;;;;;5037710;28;9436;-69
2022/01/15 07:25:54;;;;;;;;;49.75;39.50;30.60;90.40;;;;;;5037703;28;8780;-70
2022/01/15 07:28:21;;;;;;;;;55.50;43.75;30.60;90.50;;;;;;5039223;28;8713;-69
2022/01/15 07:30:47;;;;;;;;;48.00;40.25;30.60;90.40;;;;;;5039047;28;9508;-70
2022/01/15 07:33:14;;;;;;;;;50.25;42.25;30.50;89.90;;;;;;5037399;28;8775;-70
2022/01/15 07:35:43;;;;;;;;;46.00;35.50;30.40;89.10;;;;;;5036796;28;9152;-71
2022/01/15 07:38:13;;;;;;;;;45.00;36.75;30.50;89.70;;;;;;5037424;28;8845;-70
2022/01/15 07:40:40;;;;;;;;;52.50;41.75;30.40;90.10;;;;;;5020848;28;8784;-70
2022/01/15 07:43:07;;;;;;;;;55.00;42.75;30.40;90.00;;;;;;5039066;28;8748;-70
2022/01/15 07:45:34;;;;;;;;;49.75;41.25;30.30;90.30;;;;;;5036882;28;8783;-69
2022/01/15 07:48:01;;;;;;;;;48.00;39.50;30.10;90.60;;;;;;5038545;28;8752;-70
2022/01/15 07:50:27;;;;;;;;;54.75;44.00;30.00;90.40;;;;;;5037893;28;8760;-70
2022/01/15 07:52:55;;;;;;;;;52.25;42.50;30.10;90.30;;;;;;5036391;28;8810;-70
2022/01/15 07:55:23;;;;;;;;;53.25;43.00;30.20;90.80;;;;;;5038675;28;8749;-70
2022/01/15 07:57:49;;;;;;;;;57.75;45.50;30.10;90.60;;;;;;5037295;28;8765;-70
2022/01/15 08:00:16;;;;;;;;;54.75;44.25;30.00;90.60;;;;;;5038143;28;8806;-70
2022/01/15 08:02:43;;;;;;;;;54.75;44.50;30.10;90.70;;;;;;5037102;28;8837;-70
2022/01/15 08:05:10;;;;;;;;;56.00;44.00;30.20;91.00;;;;;;5017194;28;8801;-70
2022/01/15 08:07:40;;;;;;;;;57.50;45.50;30.00;91.00;;;;;;5028133;28;15659;-70
2022/01/15 08:10:07;;;;;;;;;56.75;45.25;30.10;91.00;;;;;;5038425;28;8732;-70
2022/01/15 08:12:35;;;;;;;;;56.50;45.25;30.10;91.10;;;;;;5037894;28;8764;-70
2022/01/15 08:15:02;;;;;;;;;56.00;44.25;30.10;90.80;;;;;;5038237;28;8760;-71
2022/01/15 08:17:29;;;;;;;;;53.25;41.75;30.20;91.60;;;;;;5037703;28;8843;-70
2022/01/15 08:19:56;;;;;;;;;51.25;41.50;30.10;90.90;;;;;;5047004;28;9926;-70
2022/01/15 08:22:23;;;;;;;;;56.75;44.75;30.00;90.70;;;;;;5058231;28;9363;-71
2022/01/15 08:24:50;;;;;;;;;56.00;45.25;30.00;91.10;;;;;;5058361;28;8780;-71
2022/01/15 08:27:17;;;;;;;;;55.75;46.00;29.90;91.50;;;;;;5057436;28;9378;-70
2022/01/15 08:29:43;;;;;;;;;57.75;47.00;29.70;91.10;;;;;;5057620;28;8718;-71
2022/01/15 08:32:10;;;;;;;;;60.25;45.25;29.80;91.00;;;;;;5057039;28;8821;-70
2022/01/15 08:34:38;;;;;;;;;57.75;46.25;29.90;91.00;;;;;;5056706;28;8789;-70
2022/01/15 08:37:05;;;;;;;;;57.75;44.75;29.90;91.50;;;;;;5057862;28;8761;-70
2022/01/15 08:39:31;;;;;;;;;50.25;42.00;29.80;91.60;;;;;;5055832;28;8765;-70
2022/01/15 08:41:58;;;;;;;;;58.25;46.50;29.70;90.90;;;;;;5071756;28;8750;-70
2022/01/15 08:44:25;;;;;;;;;56.75;45.25;29.80;90.90;;;;;;5072340;28;9351;-71
2022/01/15 08:46:52;;;;;;;;;56.25;44.75;30.00;91.30;;;;;;5056743;28;8762;-70
2022/01/15 08:49:19;;;;;;;;;55.75;42.00;30.20;90.80;;;;;;5057145;28;8796;-69
2022/01/15 08:51:46;;;;;;;;;57.75;46.50;30.30;90.10;;;;;;5057135;28;8766;-70
2022/01/15 08:54:13;;;;;;;;;55.00;42.75;30.20;90.20;;;;;;5055795;28;8912;-69
2022/01/15 08:56:39;;;;;;;;;57.75;44.25;30.30;90.50;;;;;;5056916;28;8792;-69
2022/01/15 08:59:06;;;;;;;;;56.00;45.00;30.30;90.20;;;;;;5055725;28;8762;-71
2022/01/15 09:01:33;;;;;;;;;58.00;44.25;30.30;90.70;;;;;;5057025;28;8789;-70
2022/01/15 09:04:00;;;;;;;;;58.25;45.50;30.10;90.50;;;;;;5056996;28;8750;-70
2022/01/15 09:06:27;;;;;;;;;53.75;44.25;30.00;90.80;;;;;;5056284;28;9470;-70
2022/01/15 09:08:54;;;;;;;;;59.50;47.00;30.00;90.90;;;;;;5055585;28;9472;-71
2022/01/15 09:11:21;;;;;;;;;55.00;46.00;29.90;91.10;;;;;;5071717;28;8750;-69
2022/01/15 09:13:48;;;;;;;;;56.75;46.25;29.80;91.20;;;;;;5056715;28;8754;-69
2022/01/15 09:16:18;;;;;;;;;56.25;45.00;29.90;90.80;;;;;;5057108;28;8804;-70
2022/01/15 09:18:46;;;;;;;;;56.75;45.50;30.00;91.60;;;;;;5055182;28;8738;-70
2022/01/15 09:21:13;;;;;;;;;58.50;47.00;30.00;91.00;;;;;;5056742;28;8790;-70
2022/01/15 09:23:40;;;;;;;;;59.00;46.75;30.00;90.50;;;;;;5056470;28;8772;-69
2022/01/15 09:26:08;;;;;;;;;58.00;44.75;29.90;91.00;;;;;;5056165;28;8776;-69
2022/01/15 09:31:19;;;;;;;;;55.25;44.50;30.00;90.70;;;;;;5057027;28;8742;-68
2022/01/15 09:33:46;;;;;;;;;55.25;45.75;30.10;90.60;;;;;;5056748;28;8758;-70
2022/01/15 09:36:13;;;;;;;;;58.25;47.50;30.10;90.70;;;;;;5056267;28;8774;-71
2022/01/15 09:38:39;;;;;;;;;55.75;46.00;30.30;90.90;;;;;;5056458;28;8774;-70
2022/01/15 09:41:06;;;;;;;;;54.50;45.00;30.30;91.00;;;;;;5056440;28;8780;-71
2022/01/15 09:43:33;;;;;;;;;54.25;43.75;30.20;90.90;;;;;;5054698;28;8782;-70
2022/01/15 09:46:00;;;;;;;;;57.25;45.25;30.00;91.10;;;;;;5039128;28;8741;-70
2022/01/15 09:48:27;;;;;;;;;54.50;45.50;30.00;90.70;;;;;;5055203;28;8900;-71
2022/01/15 09:50:53;;;;;;;;;58.25;46.00;30.10;91.30;;;;;;5056538;28;8774;-70
2022/01/15 09:53:20;;;;;;;;;49.75;42.75;30.00;91.00;;;;;;5056300;28;8752;-69
2022/01/15 09:55:47;;;;;;;;;58.50;44.75;30.00;90.30;;;;;;5056384;28;8761;-71
2022/01/15 09:58:17;;;;;;;;;62.50;48.25;29.90;91.00;;;;;;5055598;28;8750;-70
2022/01/15 10:00:45;;;;;;;;;58.00;47.00;29.80;91.10;;;;;;5055125;28;8746;-71
2022/01/15 10:03:15;;;;;;;;;64.50;48.25;29.80;91.10;;;;;;5055028;28;8841;-70
2022/01/15 10:05:42;;;;;;;;;61.25;49.25;29.70;92.10;;;;;;5054559;28;9434;-71
2022/01/15 10:08:10;;;;;;;;;57.75;46.25;29.60;92.50;;;;;;5055771;28;8777;-71
2022/01/15 10:10:39;;;;;;;;;57.75;46.00;29.60;91.70;;;;;;5056053;28;9426;-70
2022/01/15 10:13:15;;;;;;;;;57.75;46.50;29.50;91.10;;;;;;5056893;28;8734;-71
2022/01/15 10:15:50;;;;;;;;;54.25;44.25;29.50;91.40;;;;;;5058227;28;8766;-70
2022/01/15 10:18:21;;;;;;;;;63.25;50.00;29.50;91.80;;;;;;5059769;28;8780;-71
2022/01/15 10:20:48;;;;;;;;;61.00;47.50;29.50;91.90;;;;;;5038556;28;10230;-71
2022/01/15 10:23:18;;;;;;;;;54.50;45.75;29.30;93.30;;;;;;5039688;28;8799;-71
2022/01/15 10:25:45;;;;;;;;;59.50;46.00;29.10;93.30;;;;;;5039917;28;8816;-71
2022/01/15 10:28:11;;;;;;;;;59.25;47.00;29.00;93.30;;;;;;5040302;28;8855;-71
2022/01/15 10:30:41;;;;;;;;;66.25;51.50;28.80;93.60;;;;;;5037983;28;9394;-71
2022/01/15 10:33:09;;;;;;;;;71.25;55.25;28.70;93.80;;;;;;5039864;28;8760;-71
2022/01/15 10:35:40;;;;;;;;;69.25;54.00;28.70;93.60;;;;;;5053709;28;9537;-71
2022/01/15 10:38:13;;;;;;;;;66.75;53.25;28.60;94.00;;;;;;5058384;28;8762;-71
2022/01/15 10:40:41;;;;;;;;;64.25;50.75;28.60;94.10;;;;;;5059613;28;8746;-71
2022/01/15 10:43:09;;;;;;;;;67.80;53.00;28.60;94.40;;;;;;5059871;28;8718;-71
2022/01/15 10:45:46;;;;;;;;;66.75;52.50;28.60;94.80;;;;;;5058081;28;9511;-71
2022/01/15 10:48:20;;;;;;;;;65.50;51.25;28.50;94.70;;;;;;5059467;28;8876;-71
2022/01/15 10:50:54;;;;;;;;;69.80;55.20;28.50;94.80;;;;;;5058409;28;8785;-71
2022/01/15 10:53:20;;;;;;;;;66.40;51.80;28.40;94.70;;;;;;5058467;28;8765;-70
2022/01/15 10:55:47;;;;;;;;;67.60;53.40;28.50;94.60;;;;;;5041697;28;8872;-71
2022/01/15 10:58:16;;;;;;;;;64.00;51.75;28.40;94.90;;;;;;5042529;28;8770;-71
2022/01/15 11:00:46;;;;;;;;;66.00;51.80;28.40;95.00;;;;;;5059818;28;8758;-71
2022/01/15 11:03:16;;;;;;;;;67.40;51.60;28.30;95.30;;;;;;5063697;28;8747;-71
2022/01/15 11:05:49;;;;;;;;;63.75;52.25;28.30;95.40;;;;;;5060517;28;8762;-71
2022/01/15 11:08:17;;;;;;;;;68.00;52.60;28.30;95.20;;;;;;5059338;28;8777;-71
2022/01/15 11:10:53;;;;;;;;;62.50;48.75;28.20;95.00;;;;;;5074445;28;8738;-71
2022/01/15 11:13:25;;;;;;;;;65.25;51.50;28.00;95.00;;;;;;5059591;28;8844;-71
2022/01/15 11:15:57;;;;;;;;;67.50;53.00;28.00;95.30;;;;;;5059680;28;8741;-71
2022/01/15 11:18:27;;;;;;;;;67.00;52.00;28.00;95.70;;;;;;5059415;28;8742;-71
2022/01/15 11:20:55;;;;;;;;;55.50;43.25;28.00;95.70;;;;;;5059249;28;8904;-71
2022/01/15 11:23:25;;;;;;;;;64.25;50.50;27.90;95.80;;;;;;5058620;28;8754;-70
2022/01/15 11:25:52;;;;;;;;;64.80;51.40;27.90;96.10;;;;;;5057083;28;8766;-71
2022/01/15 11:28:21;;;;;;;;;74.40;60.20;27.90;97.00;;;;;;5058307;28;8768;-70
2022/01/15 11:30:48;;;;;;;;;72.00;57.20;27.70;98.40;;;;;;5057854;28;8864;-71
2022/01/15 11:33:18;;;;;;;;;72.60;55.20;27.60;98.70;;;;;;5041366;28;9419;-71
2022/01/15 11:35:45;;;;;;;;;74.00;57.40;27.50;98.60;;;;;;5042009;28;8753;-71
2022/01/15 11:38:32;;;;;;;;;69.20;54.80;27.50;98.40;;;;;;5058752;28;8778;-72
2022/01/15 11:40:59;;;;;;;;;71.60;55.40;27.50;97.60;;;;;;5057064;28;8785;-71
2022/01/15 11:43:26;;;;;;;;;69.20;53.20;27.50;97.40;;;;;;5058010;28;8738;-70
2022/01/15 11:45:53;;;;;;;;;63.75;51.50;27.40;97.40;;;;;;5058967;28;8840;-72
2022/01/15 11:48:22;;;;;;;;;68.00;53.00;27.50;97.30;;;;;;5058358;28;8811;-70
2022/01/15 11:51:19;;;;;;;;;63.75;51.50;27.40;97.20;;;;;;5058522;28;8777;-72
2022/01/15 11:53:46;;;;;;;;;62.75;49.25;27.40;96.90;;;;;;5056947;28;9452;-71
2022/01/15 11:56:28;;;;;;;;;61.50;49.00;27.10;96.90;;;;;;5058361;28;8780;-71
2022/01/15 11:58:58;;;;;;;;;63.50;48.75;27.00;97.10;;;;;;5058065;28;8766;-71
2022/01/15 12:01:42;;;;;;;;;55.50;47.00;26.70;97.60;;;;;;5040163;28;8792;-62
2022/01/15 12:04:28;;;;;;;;;59.75;48.50;26.60;97.70;;;;;;5074276;28;8758;-71
2022/01/15 12:07:07;;;;;;;;;60.75;48.00;26.50;97.90;;;;;;5057652;28;9474;-71
2022/01/15 12:09:43;;;;;;;;;63.25;48.50;26.70;97.80;;;;;;5057781;28;8778;-70
2022/01/15 12:12:39;;;;;;;;;57.75;46.25;26.70;97.60;;;;;;5057138;28;8761;-71
2022/01/15 12:15:09;;;;;;;;;63.25;47.00;26.80;97.50;;;;;;5056454;28;8753;-71
2022/01/15 12:17:43;;;;;;;;;62.50;48.50;26.60;97.90;;;;;;5057812;28;8777;-71
2022/01/15 12:20:25;;;;;;;;;62.50;48.25;26.50;98.10;;;;;;5057287;28;9175;-71
2022/01/15 12:22:59;;;;;;;;;56.75;46.25;26.60;98.00;;;;;;5058520;28;8738;-72
2022/01/15 12:25:32;;;;;;;;;54.75;41.25;26.70;97.90;;;;;;5056669;28;8734;-70
2022/01/15 12:28:00;;;;;;;;;58.00;47.25;26.50;98.30;;;;;;5058230;28;8769;-71
2022/01/15 12:30:28;;;;;;;;;59.00;46.50;26.40;98.60;;;;;;5057559;28;9050;-71
2022/01/15 12:32:56;;;;;;;;;54.25;45.25;26.20;98.90;;;;;;5056593;28;9073;-71
2022/01/15 12:35:30;;;;;;;;;57.50;46.25;26.20;98.90;;;;;;5055699;28;8847;-71
2022/01/15 12:38:01;;;;;;;;;56.50;46.25;26.30;98.90;;;;;;5056743;28;8867;-71
2022/01/15 12:40:41;;;;;;;;;57.00;45.00;26.20;98.80;;;;;;5072008;28;8754;-70
2022/01/15 12:43:19;;;;;;;;;59.75;47.75;26.30;98.90;;;;;;5058530;28;8737;-71
2022/01/15 12:45:49;;;;;;;;;71.00;54.25;26.40;98.70;;;;;;5058085;28;9395;-71
2022/01/15 12:48:20;;;;;;;;;72.00;54.75;26.40;98.80;;;;;;5057672;28;8765;-72
2022/01/15 12:50:50;;;;;;;;;69.60;53.60;26.50;98.60;;;;;;5055755;28;8770;-71
2022/01/15 12:53:18;;;;;;;;;58.25;46.00;26.40;99.20;;;;;;5056962;28;8823;-71
2022/01/15 12:55:45;;;;;;;;;61.00;48.75;26.20;99.60;;;;;;5057102;28;8785;-71
2022/01/15 12:58:15;;;;;;;;;60.75;48.50;26.00;99.90;;;;;;5057332;28;8752;-72
2022/01/15 13:00:42;;;;;;;;;57.75;46.00;26.00;99.70;;;;;;5056970;28;8761;-71
2022/01/15 13:03:11;;;;;;;;;60.50;47.75;26.00;99.60;;;;;;5057112;28;8777;-71
2022/01/15 13:05:45;;;;;;;;;57.50;46.50;26.10;99.80;;;;;;5056521;28;9332;-71
2022/01/15 13:08:13;;;;;;;;;58.75;47.25;26.10;99.70;;;;;;5055333;28;8786;-71